Time;durP1;ratioP1;P1;durP2;ratioP2;P2;SDS_P1;SDS_P2;PMS_P1;PMS_P2;Temp;Humidity;BMP_temperature;BMP_pressure;BME280_temperature;BME280_humidity;BME280_pressure;Samples;Min_cycle;Max_cycle;Signal;HPM_P1;HPM_P2
2021/06/01 00:00:39;;;;;;;3.50;1.57;;;13.80;99.90;;;;;;5072618;28;20043;-80
2021/06/01 00:03:05;;;;;;;3.63;2.03;;;13.80;99.90;;;;;;5072694;28;20070;-79
2021/06/01 00:05:31;;;;;;;2.17;1.60;;;13.70;99.90;;;;;;5073947;28;20033;-80
2021/06/01 00:07:56;;;;;;;3.47;2.20;;;13.70;99.90;;;;;;5072150;28;20496;-79
2021/06/01 00:10:22;;;;;;;2.23;1.77;;;13.70;99.90;;;;;;5069186;28;20070;-79
2021/06/01 00:12:48;;;;;;;2.03;1.63;;;13.60;99.90;;;;;;5067608;28;20408;-79
2021/06/01 00:15:13;;;;;;;3.53;1.57;;;13.60;99.90;;;;;;5068332;28;20027;-79
2021/06/01 00:17:39;;;;;;;4.73;1.77;;;13.60;99.90;;;;;;5089560;28;20060;-80
2021/06/01 00:20:10;;;;;;;2.10;1.53;;;13.70;99.90;;;;;;5074125;28;20029;-79
2021/06/01 00:22:36;;;;;;;4.65;1.90;;;13.60;99.90;;;;;;5069557;28;20049;-79
2021/06/01 00:25:03;;;;;;;2.55;2.00;;;13.70;99.90;;;;;;5067090;28;20024;-79
2021/06/01 00:27:29;;;;;;;3.15;1.90;;;13.60;99.90;;;;;;5074434;28;20062;-79
2021/06/01 00:29:55;;;;;;;5.43;1.40;;;13.60;99.90;;;;;;5071510;28;20032;-79
2021/06/01 00:32:21;;;;;;;2.87;2.10;;;13.50;99.90;;;;;;5073501;28;20029;-79
2021/06/01 00:34:46;;;;;;;3.53;1.83;;;13.50;99.90;;;;;;5074219;28;20024;-79
2021/06/01 00:37:12;;;;;;;7.27;1.97;;;13.50;99.90;;;;;;5074948;28;20032;-79
2021/06/01 00:39:38;;;;;;;1.47;1.17;;;13.50;99.90;;;;;;5068535;28;20025;-79
2021/06/01 00:42:04;;;;;;;1.93;1.70;;;13.50;99.90;;;;;;5069333;28;20052;-79
2021/06/01 00:44:30;;;;;;;4.97;1.60;;;13.50;99.90;;;;;;5074720;28;20608;-78
2021/06/01 00:46:55;;;;;;;4.97;1.80;;;13.50;99.90;;;;;;5062117;28;20032;-79
2021/06/01 00:49:21;;;;;;;2.00;1.43;;;13.40;99.90;;;;;;5072691;28;20036;-79
2021/06/01 00:51:47;;;;;;;4.70;1.70;;;13.40;99.90;;;;;;5067227;28;20032;-79
2021/06/01 00:54:13;;;;;;;2.67;1.40;;;13.40;99.90;;;;;;5073028;28;20419;-80
2021/06/01 00:56:43;;;;;;;2.27;1.17;;;13.40;99.90;;;;;;5072058;28;20032;-80
2021/06/01 00:59:09;;;;;;;4.88;1.42;;;13.40;99.90;;;;;;5067380;28;20028;-78
2021/06/01 01:01:34;;;;;;;1.97;1.30;;;13.40;99.90;;;;;;5065345;28;20029;-79
2021/06/01 01:04:00;;;;;;;3.13;1.67;;;13.40;99.90;;;;;;5062444;28;20035;-79
2021/06/01 01:06:47;;;;;;;3.20;1.57;;;13.40;99.90;;;;;;5072721;28;20032;-79
2021/06/01 01:09:15;;;;;;;3.35;1.60;;;13.40;99.90;;;;;;5068454;28;20021;-80
2021/06/01 01:11:49;;;;;;;3.17;1.60;;;13.30;99.90;;;;;;5069471;28;20489;-79
2021/06/01 01:14:37;;;;;;;2.40;1.30;;;13.30;99.90;;;;;;5065194;28;20343;-80
2021/06/01 01:17:25;;;;;;;3.22;1.75;;;13.30;99.90;;;;;;5071125;28;20101;-79
2021/06/01 01:20:16;;;;;;;2.75;1.25;;;13.30;99.90;;;;;;5064379;28;20044;-80
2021/06/01 01:22:45;;;;;;;2.05;1.50;;;13.30;99.90;;;;;;5067410;28;20427;-80
2021/06/01 01:25:25;;;;;;;2.78;1.70;;;13.30;99.90;;;;;;5065369;28;20339;-80
2021/06/01 01:28:01;;;;;;;2.75;1.48;;;13.30;99.90;;;;;;5073400;28;20076;-80
2021/06/01 01:30:40;;;;;;;4.00;1.92;;;13.30;99.90;;;;;;5054573;28;20033;-80
2021/06/01 01:33:20;;;;;;;4.10;1.65;;;13.20;99.90;;;;;;5072646;28;20373;-80
2021/06/01 01:35:48;;;;;;;2.60;1.85;;;13.30;99.90;;;;;;5065549;28;20024;-80
2021/06/01 01:38:15;;;;;;;1.75;1.50;;;13.30;99.90;;;;;;5058087;28;20029;-79
2021/06/01 01:40:42;;;;;;;2.22;1.58;;;13.30;99.90;;;;;;5071666;28;20031;-80
2021/06/01 01:43:14;;;;;;;4.20;1.75;;;13.30;99.90;;;;;;5067359;28;20047;-79
2021/06/01 01:45:43;;;;;;;4.40;1.75;;;13.40;99.90;;;;;;5071065;28;20052;-79
2021/06/01 01:51:11;;;;;;;2.60;1.50;;;13.30;99.90;;;;;;5061519;28;20031;-79
2021/06/01 01:53:42;;;;;;;2.53;1.70;;;13.40;99.90;;;;;;5060864;28;20027;-79
2021/06/01 01:56:08;;;;;;;2.83;1.83;;;13.30;99.90;;;;;;5068826;28;20423;-80
2021/06/01 01:58:34;;;;;;;1.67;1.35;;;13.30;99.90;;;;;;5071854;28;20077;-79
2021/06/01 02:01:01;;;;;;;12.25;2.28;;;13.20;99.90;;;;;;5073152;28;20422;-80
2021/06/01 02:03:27;;;;;;;4.07;1.95;;;13.20;99.90;;;;;;5066738;28;20411;-79
2021/06/01 02:05:53;;;;;;;4.07;2.07;;;13.20;99.90;;;;;;5071455;28;20023;-79
2021/06/01 02:08:18;;;;;;;1.88;1.65;;;13.10;99.90;;;;;;5068584;28;20039;-81
2021/06/01 02:10:44;;;;;;;2.37;1.63;;;13.10;99.90;;;;;;5067349;28;20036;-80
2021/06/01 02:13:10;;;;;;;2.57;1.70;;;13.10;99.90;;;;;;5064693;28;20155;-80
2021/06/01 02:15:35;;;;;;;3.43;2.17;;;13.10;99.90;;;;;;5070461;28;20078;-80
2021/06/01 02:18:01;;;;;;;5.17;1.50;;;13.10;99.90;;;;;;5072046;28;20437;-80
2021/06/01 02:20:30;;;;;;;3.27;1.97;;;13.10;99.90;;;;;;5067762;28;20028;-81
2021/06/01 02:26:00;;;;;;;3.35;1.60;;;13.00;99.90;;;;;;5068910;28;20035;-80
2021/06/01 02:28:39;;;;;;;2.75;1.95;;;13.00;99.90;;;;;;5076074;28;20292;-80
2021/06/01 02:31:07;;;;;;;3.53;2.03;;;13.00;99.90;;;;;;5074153;28;20529;-79
2021/06/01 02:33:36;;;;;;;2.78;1.88;;;12.90;99.90;;;;;;5076490;28;20036;-80
2021/06/01 02:36:03;;;;;;;6.60;1.88;;;12.80;99.90;;;;;;5077996;28;20029;-80
2021/06/01 02:38:33;;;;;;;5.00;2.05;;;12.80;99.90;;;;;;5072302;28;20024;-80
2021/06/01 02:41:03;;;;;;;2.80;1.77;;;12.80;99.90;;;;;;5072738;28;20020;-80
2021/06/01 02:43:30;;;;;;;5.80;2.05;;;12.80;99.90;;;;;;5077229;28;20039;-80
2021/06/01 02:45:56;;;;;;;3.05;1.98;;;12.70;99.90;;;;;;5060849;28;20419;-80
2021/06/01 02:48:23;;;;;;;3.75;2.05;;;12.70;99.90;;;;;;5071395;28;20043;-80
2021/06/01 02:50:50;;;;;;;;;;;12.70;99.90;;;;;;5075580;28;20115;-79
2021/06/01 02:53:16;;;;;;;2.72;1.77;;;12.70;99.90;;;;;;5075156;28;19963;-79
2021/06/01 02:55:42;;;;;;;3.53;2.17;;;12.60;99.90;;;;;;5076092;28;20074;-80
2021/06/01 02:58:10;;;;;;;3.23;2.20;;;12.50;99.90;;;;;;5074509;28;20021;-80
2021/06/01 03:00:37;;;;;;;2.83;2.13;;;12.50;99.90;;;;;;5064521;28;20392;-78
2021/06/01 03:03:08;;;;;;;4.28;2.10;;;12.50;99.90;;;;;;5070242;28;20028;-80
2021/06/01 03:05:34;;;;;;;3.70;2.00;;;12.50;99.90;;;;;;5076498;28;20445;-79
2021/06/01 03:08:15;;;;;;;3.28;2.03;;;12.50;99.90;;;;;;5074716;28;20043;-78
2021/06/01 03:10:40;;;;;;;3.97;2.35;;;12.40;99.90;;;;;;5063835;28;20416;-80
2021/06/01 03:13:07;;;;;;;5.00;2.17;;;12.40;99.90;;;;;;5072181;28;20043;-79
2021/06/01 03:15:32;;;;;;;3.33;2.03;;;12.40;99.90;;;;;;5069612;28;20082;-80
2021/06/01 03:17:58;;;;;;;3.87;1.90;;;12.40;99.90;;;;;;5065229;28;20359;-79
2021/06/01 03:20:24;;;;;;;7.10;1.70;;;12.30;99.90;;;;;;5074017;28;20415;-80
2021/06/01 03:22:50;;;;;;;1.97;1.77;;;12.30;99.90;;;;;;5076600;28;20120;-79
2021/06/01 03:25:15;;;;;;;2.80;1.77;;;12.30;99.90;;;;;;5072715;28;20029;-79
2021/06/01 03:27:41;;;;;;;2.90;1.73;;;12.30;99.90;;;;;;5070933;28;20064;-79
2021/06/01 03:30:11;;;;;;;2.57;2.00;;;12.20;99.90;;;;;;5068822;28;20106;-79
2021/06/01 03:32:38;;;;;;;5.75;2.50;;;12.20;99.90;;;;;;5071725;28;20048;-79
2021/06/01 03:35:06;;;;;;;3.33;1.90;;;12.20;99.90;;;;;;5066508;28;20037;-79
2021/06/01 03:37:31;;;;;;;4.93;2.55;;;12.20;99.90;;;;;;5064906;28;20058;-79
2021/06/01 03:39:57;;;;;;;4.87;2.30;;;12.20;99.90;;;;;;5079959;28;20399;-79
2021/06/01 03:42:23;;;;;;;3.13;2.20;;;12.20;99.90;;;;;;5070109;28;20079;-80
2021/06/01 03:44:48;;;;;;;4.90;1.77;;;12.20;99.90;;;;;;5064811;28;20066;-80
2021/06/01 03:47:14;;;;;;;2.80;1.73;;;12.10;99.90;;;;;;5075152;28;20047;-80
2021/06/01 03:49:40;;;;;;;2.90;1.90;;;12.10;99.90;;;;;;5073016;28;20032;-80
2021/06/01 03:52:07;;;;;;;3.00;1.97;;;12.00;99.90;;;;;;5073296;28;20032;-80
2021/06/01 03:54:38;;;;;;;3.33;2.05;;;12.00;99.90;;;;;;5067959;28;20112;-79
2021/06/01 03:57:06;;;;;;;6.65;2.03;;;12.00;99.90;;;;;;5067502;28;20028;-80
2021/06/01 03:59:32;;;;;;;4.93;2.10;;;12.00;99.90;;;;;;5070769;28;20032;-81
2021/06/01 04:01:57;;;;;;;4.07;1.80;;;12.00;99.90;;;;;;5069537;28;20045;-80
2021/06/01 04:04:23;;;;;;;3.40;1.90;;;12.00;99.90;;;;;;5074250;28;20035;-79
2021/06/01 04:06:49;;;;;;;6.10;2.23;;;12.00;99.90;;;;;;5075053;28;20033;-79
2021/06/01 04:09:15;;;;;;;3.63;1.97;;;12.00;99.90;;;;;;5073492;28;20046;-79
2021/06/01 04:11:40;;;;;;;4.23;2.30;;;12.10;99.90;;;;;;5070763;28;20032;-80
2021/06/01 04:14:06;;;;;;;5.17;2.07;;;12.20;99.90;;;;;;5059899;28;20280;-81
2021/06/01 04:16:32;;;;;;;3.50;2.10;;;12.20;99.90;;;;;;5066078;28;20034;-81
2021/06/01 04:18:58;;;;;;;3.43;2.27;;;12.30;99.90;;;;;;5069115;28;20378;-80
2021/06/01 04:21:23;;;;;;;5.57;1.90;;;12.40;99.90;;;;;;5072723;28;20123;-79
2021/06/01 04:23:49;;;;;;;6.70;2.33;;;12.40;99.90;;;;;;5072996;28;20335;-80
2021/06/01 04:26:15;;;;;;;3.43;1.80;;;12.50;99.90;;;;;;5070259;28;20176;-80
2021/06/01 04:28:41;;;;;;;7.53;2.27;;;12.50;99.90;;;;;;5072058;28;20037;-80
2021/06/01 04:31:07;;;;;;;6.05;2.50;;;12.60;99.90;;;;;;5071867;28;20024;-78
2021/06/01 04:33:33;;;;;;;4.55;1.52;;;12.70;99.90;;;;;;5072273;28;20028;-79
2021/06/01 04:35:59;;;;;;;3.30;2.03;;;12.80;99.90;;;;;;5070050;28;20115;-79
2021/06/01 04:38:25;;;;;;;4.78;2.03;;;12.90;99.90;;;;;;5071121;28;20016;-79
2021/06/01 04:40:51;;;;;;;3.80;2.20;;;13.00;99.90;;;;;;5072399;28;20111;-81
2021/06/01 04:43:17;;;;;;;3.23;2.10;;;13.10;99.90;;;;;;5071594;28;20099;-80
2021/06/01 04:45:43;;;;;;;8.82;2.47;;;13.20;99.90;;;;;;5068670;28;20680;-79
2021/06/01 04:48:08;;;;;;;6.07;2.73;;;13.20;99.90;;;;;;5068976;28;20040;-80
2021/06/01 04:50:34;;;;;;;4.03;1.77;;;13.30;99.90;;;;;;5071401;28;20040;-81
2021/06/01 04:53:00;;;;;;;2.57;1.70;;;13.30;99.90;;;;;;5072323;28;20305;-81
2021/06/01 04:55:26;;;;;;;3.33;2.30;;;13.40;99.90;;;;;;5070456;28;20697;-79
2021/06/01 04:57:51;;;;;;;4.63;2.20;;;13.40;99.90;;;;;;5072738;28;20035;-81
2021/06/01 05:00:18;;;;;;;7.33;2.47;;;13.50;99.90;;;;;;5070691;28;20035;-81
2021/06/01 05:02:43;;;;;;;5.25;2.30;;;13.60;99.90;;;;;;5070832;28;20033;-80
2021/06/01 05:05:10;;;;;;;10.30;2.90;;;13.70;99.90;;;;;;5069065;28;20028;-80
2021/06/01 05:07:36;;;;;;;3.72;1.90;;;13.80;99.90;;;;;;5071214;28;20446;-79
2021/06/01 05:10:03;;;;;;;3.33;2.30;;;13.80;99.90;;;;;;5068362;28;20033;-80
2021/06/01 05:12:30;;;;;;;2.50;1.95;;;13.90;99.90;;;;;;5070450;28;20023;-80
2021/06/01 05:14:55;;;;;;;;;;;14.00;99.90;;;;;;5069189;28;20036;-78
2021/06/01 05:17:21;;;;;;;3.17;1.85;;;14.10;99.90;;;;;;5071361;28;19908;-80
2021/06/01 05:19:47;;;;;;;5.00;2.33;;;14.20;99.90;;;;;;5072697;28;20047;-80
2021/06/01 05:22:13;;;;;;;4.40;2.33;;;14.30;99.90;;;;;;5072819;28;20111;-80
2021/06/01 05:24:39;;;;;;;5.37;2.07;;;14.30;99.90;;;;;;5070987;28;20060;-80
2021/06/01 05:27:06;;;;;;;6.88;2.10;;;14.30;99.90;;;;;;5072314;28;20036;-79
2021/06/01 05:29:35;;;;;;;6.25;1.95;;;14.30;99.90;;;;;;5067235;28;20304;-80
2021/06/01 05:32:07;;;;;;;3.65;2.45;;;14.40;99.90;;;;;;5067497;28;20052;-80
2021/06/01 05:34:36;;;;;;;4.05;2.38;;;14.50;99.90;;;;;;5068085;28;20021;-80
2021/06/01 05:37:02;;;;;;;3.75;2.35;;;14.60;99.90;;;;;;5067786;28;20027;-80
2021/06/01 05:39:28;;;;;;;5.03;2.30;;;14.60;99.90;;;;;;5072880;28;20028;-80
2021/06/01 05:41:53;;;;;;;2.70;2.17;;;14.80;99.90;;;;;;5069444;28;20024;-80
2021/06/01 05:44:19;;;;;;;5.83;2.67;;;14.80;99.90;;;;;;5069726;28;20420;-80
2021/06/01 05:46:45;;;;;;;5.93;1.83;;;15.00;99.90;;;;;;5071401;28;20384;-79
2021/06/01 05:49:10;;;;;;;5.27;2.40;;;15.10;99.90;;;;;;5069518;28;20027;-80
2021/06/01 05:51:37;;;;;;;2.83;2.20;;;15.20;99.90;;;;;;5072573;28;20086;-79
2021/06/01 05:54:04;;;;;;;6.53;2.63;;;15.30;99.90;;;;;;5070123;28;20147;-80
2021/06/01 05:56:31;;;;;;;2.78;2.10;;;15.40;99.90;;;;;;5072539;28;20126;-79
2021/06/01 05:58:57;;;;;;;4.22;2.22;;;15.40;99.90;;;;;;5077800;28;20025;-80
2021/06/01 06:01:23;;;;;;;3.80;2.60;;;15.50;99.90;;;;;;5076173;28;20042;-79
2021/06/01 06:03:48;;;;;;;5.70;2.37;;;15.50;99.90;;;;;;5079692;28;20020;-79
2021/06/01 06:06:15;;;;;;;4.07;2.20;;;15.60;99.90;;;;;;5077830;28;20025;-79
2021/06/01 06:08:41;;;;;;;6.68;2.45;;;15.60;99.90;;;;;;5078556;28;20111;-79
2021/06/01 06:11:06;;;;;;;3.90;2.27;;;15.70;99.90;;;;;;5076978;28;20123;-79
2021/06/01 06:13:32;;;;;;;6.37;2.00;;;15.80;99.90;;;;;;5076190;28;20020;-80
2021/06/01 06:15:58;;;;;;;4.13;2.23;;;15.90;99.90;;;;;;5077217;28;20100;-80
2021/06/01 06:18:30;;;;;;;6.75;2.20;;;15.90;99.90;;;;;;5077242;28;20020;-78
2021/06/01 06:21:00;;;;;;;4.45;2.28;;;16.00;99.90;;;;;;5076805;28;20028;-79
2021/06/01 06:23:29;;;;;;;4.00;1.98;;;16.10;99.90;;;;;;5074915;28;20140;-79
2021/06/01 06:25:55;;;;;;;4.53;2.22;;;16.10;99.90;;;;;;5077889;28;20037;-78
2021/06/01 06:28:20;;;;;;;5.13;2.03;;;16.20;99.90;;;;;;5077707;28;20358;-79
2021/06/01 06:30:46;;;;;;;4.93;1.93;;;16.30;99.90;;;;;;5077993;28;20315;-80
2021/06/01 06:33:12;;;;;;;5.60;2.10;;;16.30;99.90;;;;;;5079438;28;20365;-80
2021/06/01 06:35:37;;;;;;;5.73;2.63;;;16.40;99.90;;;;;;5072639;28;20158;-76
2021/06/01 06:38:03;;;;;;;5.27;2.10;;;16.50;99.90;;;;;;5074373;28;20025;-79
2021/06/01 06:40:29;;;;;;;4.83;2.50;;;16.50;99.90;;;;;;5078700;28;20028;-78
2021/06/01 06:42:55;;;;;;;5.20;2.27;;;16.60;99.90;;;;;;5077514;28;20166;-78
2021/06/01 06:45:23;;;;;;;4.77;1.77;;;16.60;99.90;;;;;;5075966;28;20544;-79
2021/06/01 06:50:20;;;;;;;3.23;2.23;;;16.70;99.90;;;;;;5078426;28;20043;-80
2021/06/01 06:52:47;;;;;;;5.05;2.00;;;16.90;99.90;;;;;;5077464;28;20438;-79
2021/06/01 06:55:13;;;;;;;2.72;2.17;;;16.90;99.90;;;;;;5077600;28;20327;-80
2021/06/01 06:57:39;;;;;;;3.28;2.25;;;17.00;99.90;;;;;;5067386;28;20054;-77
2021/06/01 07:00:11;;;;;;;6.13;2.40;;;17.10;99.90;;;;;;5077161;28;20380;-80
2021/06/01 07:02:37;;;;;;;4.00;2.28;;;17.20;99.90;;;;;;5072479;28;20331;-79
2021/06/01 07:05:04;;;;;;;2.83;2.43;;;17.30;99.90;;;;;;5077331;28;20024;-80
2021/06/01 07:07:30;;;;;;;4.60;2.58;;;17.40;99.90;;;;;;5069937;28;20272;-79
2021/06/01 07:09:56;;;;;;;5.93;2.40;;;17.40;99.90;;;;;;5073290;28;20029;-77
2021/06/01 07:12:22;;;;;;;5.03;2.63;;;17.50;99.90;;;;;;5072060;28;20043;-78
2021/06/01 07:14:56;;;;;;;5.70;2.80;;;17.60;99.90;;;;;;5072255;28;20027;-78
2021/06/01 07:17:23;;;;;;;4.80;2.38;;;17.70;99.90;;;;;;5057112;28;20032;-80
2021/06/01 07:19:52;;;;;;;5.72;2.50;;;17.90;99.90;;;;;;5068257;28;20556;-82
2021/06/01 07:22:18;;;;;;;4.80;2.40;;;17.90;99.90;;;;;;5072452;28;20073;-81
2021/06/01 07:24:44;;;;;;;3.70;2.20;;;18.10;99.90;;;;;;5068111;28;20040;-80
2021/06/01 07:27:10;;;;;;;2.77;2.17;;;18.20;99.90;;;;;;5070584;28;20041;-80
2021/06/01 07:29:36;;;;;;;5.27;2.47;;;18.40;99.90;;;;;;5073016;28;20027;-81
2021/06/01 07:32:01;;;;;;;3.47;2.17;;;18.50;99.90;;;;;;5070260;28;20033;-80
2021/06/01 07:34:27;;;;;;;9.30;2.70;;;18.60;99.90;;;;;;5072941;28;20056;-80
2021/06/01 07:36:53;;;;;;;4.80;2.33;;;18.70;99.90;;;;;;5072094;28;20055;-80
2021/06/01 07:39:18;;;;;;;8.50;2.27;;;18.80;99.90;;;;;;5073522;28;20039;-81
2021/06/01 07:41:44;;;;;;;3.93;2.40;;;19.00;99.90;;;;;;5070298;28;20102;-79
2021/06/01 07:44:10;;;;;;;4.10;1.90;;;19.20;99.90;;;;;;5074247;28;20029;-80
2021/06/01 07:46:36;;;;;;;4.53;2.20;;;19.30;99.90;;;;;;5070934;28;20028;-78
2021/06/01 07:49:02;;;;;;;3.22;2.30;;;19.50;99.90;;;;;;5072645;28;20024;-82
2021/06/01 07:51:28;;;;;;;6.23;2.60;;;19.70;99.90;;;;;;5072217;28;20098;-81
2021/06/01 07:54:03;;;;;;;11.02;2.55;;;19.70;99.90;;;;;;5075030;28;20020;-81
2021/06/01 07:56:31;;;;;;;4.82;2.08;;;19.90;99.90;;;;;;5077022;28;20025;-81
2021/06/01 07:58:57;;;;;;;3.75;2.33;;;20.00;99.90;;;;;;5076115;28;20059;-81
2021/06/01 08:01:22;;;;;;;2.50;1.80;;;20.10;99.90;;;;;;5074936;28;20047;-82
2021/06/01 08:03:48;;;;;;;4.43;2.33;;;20.30;99.90;;;;;;5080055;28;20335;-79
2021/06/01 08:06:14;;;;;;;3.43;1.80;;;20.50;99.90;;;;;;5070865;28;20052;-79
2021/06/01 08:08:40;;;;;;;6.97;2.73;;;20.70;99.90;;;;;;5065718;28;20086;-80
2021/06/01 08:11:06;;;;;;;5.67;2.00;;;21.00;99.90;;;;;;5071623;28;20750;-82
2021/06/01 08:13:32;;;;;;;8.20;2.03;;;21.20;98.90;;;;;;5082899;28;20020;-80
2021/06/01 08:15:59;;;;;;;3.35;1.90;;;21.10;99.20;;;;;;5079075;28;20277;-82
2021/06/01 08:18:27;;;;;;;3.75;1.85;;;21.20;99.00;;;;;;5070879;28;20031;-81
2021/06/01 08:23:21;;;;;;;4.30;2.13;;;21.30;97.90;;;;;;5071604;28;20048;-81
2021/06/01 08:25:47;;;;;;;4.28;1.88;;;21.40;98.40;;;;;;5067336;28;20024;-79
2021/06/01 08:28:13;;;;;;;2.57;2.10;;;21.50;97.40;;;;;;5081059;28;20061;-80
2021/06/01 08:30:39;;;;;;;4.20;1.90;;;21.60;97.50;;;;;;5062351;28;20043;-79
2021/06/01 08:33:05;;;;;;;2.40;1.67;;;21.70;97.60;;;;;;5070974;28;20115;-79
2021/06/01 08:35:31;;;;;;;3.83;2.07;;;21.80;96.00;;;;;;5072076;28;20040;-79
2021/06/01 08:37:56;;;;;;;3.78;1.98;;;21.90;95.70;;;;;;5076312;28;20047;-79
2021/06/01 08:40:22;;;;;;;3.30;1.80;;;22.00;96.10;;;;;;5071014;28;20118;-80
2021/06/01 08:42:48;;;;;;;3.30;1.80;;;22.10;96.30;;;;;;5078793;28;20017;-81
2021/06/01 08:45:14;;;;;;;3.20;1.60;;;22.20;95.30;;;;;;5070156;28;20033;-80
2021/06/01 08:47:41;;;;;;;4.63;1.75;;;22.20;94.80;;;;;;5077103;28;20031;-80
2021/06/01 08:50:10;;;;;;;4.22;2.17;;;22.30;91.00;;;;;;5087822;28;20100;-79
2021/06/01 08:52:36;;;;;;;2.40;1.40;;;22.40;92.00;;;;;;5079459;28;20024;-78
2021/06/01 08:55:05;;;;;;;2.85;1.85;;;22.50;92.70;;;;;;5075165;28;20048;-79
2021/06/01 08:57:33;;;;;;;4.22;1.65;;;22.60;90.70;;;;;;5059775;28;20037;-79
2021/06/01 08:59:59;;;;;;;2.10;1.50;;;22.70;92.90;;;;;;5070195;28;20051;-80
2021/06/01 09:02:25;;;;;;;2.73;1.50;;;22.90;87.00;;;;;;5085552;28;20121;-79
2021/06/01 09:04:56;;;;;;;5.33;1.77;;;23.00;85.60;;;;;;5077584;28;20024;-82
2021/06/01 09:07:42;;;;;;;3.17;2.40;;;23.00;89.40;;;;;;5076837;28;20060;-83
2021/06/01 09:21:39;;;;;;;3.80;2.10;;;23.40;84.60;;;;;;5075812;28;20123;-81
2021/06/01 09:24:06;;;;;;;3.25;1.60;;;23.60;83.30;;;;;;5075634;28;20106;-83
2021/06/01 09:29:31;;;;;;;8.13;2.25;;;23.50;81.80;;;;;;5076863;28;20024;-83
2021/06/01 09:32:11;;;;;;;2.70;1.67;;;23.50;84.80;;;;;;5075378;28;20138;-84
2021/06/01 09:34:43;;;;;;;7.70;2.15;;;23.40;84.60;;;;;;5069233;28;20078;-82
2021/06/01 09:37:16;;;;;;;3.72;1.95;;;23.50;81.30;;;;;;5073071;28;20108;-81
2021/06/01 09:39:42;;;;;;;2.63;1.65;;;23.50;74.50;;;;;;5068407;28;20396;-85
2021/06/01 09:42:24;;;;;;;;;;;23.60;75.40;;;;;;5072493;28;20406;-82
2021/06/01 09:45:11;;;;;;;5.88;1.85;;;23.70;72.20;;;;;;5069608;28;19913;-84
2021/06/01 09:48:04;;;;;;;4.78;2.10;;;23.80;72.90;;;;;;5072069;28;20028;-84
2021/06/01 09:53:24;;;;;;;3.50;1.90;;;24.00;70.40;;;;;;5073615;28;20036;-84
2021/06/01 09:55:50;;;;;;;6.80;2.33;;;24.00;70.80;;;;;;5073081;28;20116;-85
2021/06/01 09:58:25;;;;;;;3.72;1.73;;;24.20;74.50;;;;;;5072473;28;20210;-87
2021/06/01 10:00:51;;;;;;;3.97;1.73;;;24.10;75.50;;;;;;5071285;28;20020;-89
2021/06/01 10:03:21;;;;;;;2.45;1.70;;;24.10;72.90;;;;;;5063753;28;20027;-86
2021/06/01 10:05:54;;;;;;;4.50;1.75;;;24.00;72.10;;;;;;5072822;28;20029;-84
2021/06/01 10:08:23;;;;;;;2.85;1.65;;;24.00;75.80;;;;;;5071910;28;20022;-81
2021/06/01 10:10:53;;;;;;;4.63;1.88;;;24.00;75.20;;;;;;5069820;28;20434;-84
2021/06/01 10:13:20;;;;;;;3.75;1.50;;;24.00;68.10;;;;;;5072393;28;20055;-87
2021/06/01 10:15:46;;;;;;;4.80;1.92;;;24.10;64.20;;;;;;5071469;28;20028;-78
2021/06/01 10:18:14;;;;;;;2.80;1.40;;;24.20;69.10;;;;;;5073765;28;20339;-86
2021/06/01 10:20:43;;;;;;;3.05;1.88;;;24.20;66.70;;;;;;5074028;28;20024;-81
2021/06/01 10:23:09;;;;;;;6.20;1.42;;;24.20;65.00;;;;;;5072961;28;20048;-86
2021/06/01 10:25:36;;;;;;;1.67;1.40;;;24.40;71.70;;;;;;5068896;28;20035;-80
2021/06/01 10:28:04;;;;;;;2.45;1.67;;;24.50;63.00;;;;;;5071314;28;20040;-80
2021/06/01 10:30:32;;;;;;;3.63;1.88;;;24.50;67.70;;;;;;5075170;28;20082;-83
2021/06/01 10:33:11;;;;;;;4.05;1.50;;;24.70;64.90;;;;;;5075123;28;20016;-88
2021/06/01 10:35:42;;;;;;;2.08;1.27;;;24.60;63.80;;;;;;5075389;28;20024;-83
2021/06/01 10:52:28;;;;;;;2.35;1.13;;;25.00;56.10;;;;;;5083142;28;20031;-80
2021/06/01 10:54:55;;;;;;;6.47;1.77;;;25.10;51.70;;;;;;5075581;28;20089;-82
2021/06/01 10:57:21;;;;;;;2.25;1.23;;;25.00;58.20;;;;;;5069650;28;20021;-83
2021/06/01 10:59:48;;;;;;;4.72;1.25;;;24.90;58.70;;;;;;5076577;28;20030;-85
2021/06/01 11:02:16;;;;;;;1.80;1.30;;;24.90;56.90;;;;;;5074122;28;20016;-86
2021/06/01 11:05:04;;;;;;;3.28;1.35;;;24.80;55.20;;;;;;5081887;28;20120;-78
2021/06/01 11:07:56;;;;;;;1.92;1.58;;;24.80;54.70;;;;;;5074262;28;20021;-83
2021/06/01 11:10:45;;;;;;;2.63;1.70;;;25.00;53.50;;;;;;5065250;28;20041;-81
2021/06/01 11:13:31;;;;;;;3.38;1.33;;;25.20;56.80;;;;;;5079786;28;20033;-86
2021/06/01 11:15:59;;;;;;;2.92;1.17;;;25.00;54.40;;;;;;5052354;28;20025;-81
2021/06/01 11:21:19;;;;;;;1.85;1.10;;;25.00;52.80;;;;;;5075413;28;20024;-84
2021/06/01 11:35:43;;;;;;;1.00;0.90;;;24.80;51.30;;;;;;5073292;28;20291;-84
2021/06/01 11:43:31;;;;;;;3.95;0.93;;;25.00;48.70;;;;;;5076915;28;20028;-84
2021/06/01 11:51:17;;;;;;;1.55;0.90;;;25.20;47.10;;;;;;5075747;28;20086;-79
2021/06/01 11:54:03;;;;;;;0.65;0.65;;;25.10;48.70;;;;;;5074741;28;20441;-78
2021/06/01 11:56:33;;;;;;;;;;;25.20;44.80;;;;;;5071458;28;20051;-80
2021/06/01 12:18:42;;;;;;;0.95;0.65;;;25.30;47.70;;;;;;5076558;28;20105;-79
2021/06/01 12:21:33;;;;;;;1.00;0.85;;;25.40;49.20;;;;;;5075639;28;20075;-78
2021/06/01 12:24:06;;;;;;;1.80;1.08;;;25.30;43.60;;;;;;5073008;28;20055;-79
2021/06/01 12:26:41;;;;;;;2.10;1.30;;;25.30;47.00;;;;;;5065148;28;20031;-79
2021/06/01 12:32:33;;;;;;;1.00;0.80;;;25.50;48.60;;;;;;5072485;28;20390;-83
2021/06/01 12:46:02;;;;;;;1.10;0.90;;;25.60;46.60;;;;;;5062457;28;20032;-77
2021/06/01 13:14:44;;;;;;;1.58;0.95;;;25.50;46.70;;;;;;5079871;28;20032;-77
2021/06/01 13:20:37;;;;;;;1.15;0.80;;;25.70;51.30;;;;;;5070779;28;20078;-77
2021/06/01 13:40:36;;;;;;;3.03;0.77;;;25.60;48.10;;;;;;5087711;28;20413;-78
2021/06/01 13:46:09;;;;;;;2.60;1.10;;;25.70;48.00;;;;;;5071523;28;20158;-77
2021/06/01 13:56:04;;;;;;;7.87;1.20;;;26.10;47.20;;;;;;5074358;28;20503;-82
2021/06/01 14:15:22;;;;;;;0.93;0.85;;;25.90;48.50;;;;;;5004668;28;20056;-78
2021/06/01 16:14:44;;;;;;;3.05;1.63;;;25.60;53.90;;;;;;5075140;28;20043;-81
2021/06/01 16:30:24;;;;;;;6.38;2.10;;;25.50;51.50;;;;;;5076409;28;20062;-82
2021/06/01 16:41:50;;;;;;;5.35;1.02;;;25.20;52.20;;;;;;5072650;28;20067;-87
2021/06/01 17:03:49;;;;;;;1.08;0.90;;;25.30;51.60;;;;;;5069955;28;20028;-81
2021/06/01 17:06:23;;;;;;;1.80;1.40;;;25.20;52.00;;;;;;5072184;28;20423;-81
2021/06/01 17:11:00;;;;;;;1.83;1.25;;;25.20;54.70;;;;;;5073488;28;20419;-82
2021/06/01 17:11:53;;;;;;;1.45;1.20;;;25.20;52.80;;;;;;5067201;28;20265;-78
2021/06/01 17:14:24;;;;;;;;;;;25.20;54.50;;;;;;5072470;28;20013;-82
2021/06/01 17:16:53;;;;;;;2.40;1.30;;;25.10;52.10;;;;;;5074927;28;19924;-78
2021/06/01 17:35:34;;;;;;;2.40;1.40;;;25.10;51.10;;;;;;5071590;28;20324;-79
2021/06/01 17:38:04;;;;;;;2.60;1.23;;;25.10;52.00;;;;;;5071839;28;20029;-79
2021/06/01 17:40:31;;;;;;;2.42;1.50;;;25.00;50.60;;;;;;5071479;28;20090;-77
2021/06/01 17:43:06;;;;;;;3.97;1.25;;;25.00;50.50;;;;;;5067007;28;20032;-79
2021/06/01 17:45:36;;;;;;;1.73;1.27;;;24.90;50.80;;;;;;5069339;28;20033;-79
2021/06/01 17:48:07;;;;;;;4.10;1.40;;;24.90;49.90;;;;;;5072694;28;20296;-79
2021/06/01 17:50:35;;;;;;;2.42;1.30;;;24.80;54.90;;;;;;5070970;28;20025;-78
2021/06/01 17:53:02;;;;;;;1.30;1.10;;;24.80;50.60;;;;;;5063024;28;20017;-78
2021/06/01 17:55:31;;;;;;;2.58;1.40;;;24.80;51.70;;;;;;5058569;28;20060;-79
2021/06/01 17:57:59;;;;;;;11.98;1.77;;;24.80;53.70;;;;;;5071165;28;20013;-79
2021/06/01 18:00:27;;;;;;;3.08;1.38;;;24.80;52.60;;;;;;5059746;28;20032;-77
2021/06/01 18:02:54;;;;;;;3.13;1.25;;;24.80;52.00;;;;;;5057706;28;20058;-79
2021/06/01 18:05:21;;;;;;;;;;;24.80;51.80;;;;;;5074061;28;20029;-78
2021/06/01 18:08:04;;;;;;;1.50;1.20;;;24.70;52.20;;;;;;5071161;28;20219;-78
2021/06/01 19:42:18;;;;;;;5.43;1.77;;;22.90;99.90;;;;;;5069582;28;20043;-79
2021/06/01 19:50:10;;;;;;;5.32;1.98;;;21.60;99.90;;;;;;5073499;28;20050;-78
2021/06/01 19:52:43;;;;;;;2.47;1.35;;;21.50;99.90;;;;;;5070487;28;20165;-78
2021/06/01 19:55:10;;;;;;;2.92;1.63;;;21.20;99.90;;;;;;5072873;28;20439;-78
2021/06/01 19:57:36;;;;;;;;;;;21.00;99.90;;;;;;5071823;28;20024;-78
2021/06/01 20:00:04;;;;;;;2.15;1.48;;;20.90;99.90;;;;;;5074244;28;19923;-78
2021/06/01 20:02:32;;;;;;;6.43;1.45;;;20.70;99.90;;;;;;5071198;28;20025;-79
2021/06/01 20:05:00;;;;;;;1.80;1.65;;;20.60;99.90;;;;;;5071560;28;20315;-78
2021/06/01 20:07:28;;;;;;;6.70;1.80;;;20.50;99.90;;;;;;5065118;28;20037;-78
2021/06/01 20:09:55;;;;;;;3.15;1.70;;;20.30;99.90;;;;;;5074444;28;20121;-79
2021/06/01 20:12:21;;;;;;;;;;;20.20;99.90;;;;;;5056160;28;20329;-78
2021/06/01 20:14:47;;;;;;;4.25;1.80;;;20.10;99.90;;;;;;5070926;28;20314;-78
2021/06/01 20:17:32;;;;;;;5.82;1.65;;;20.00;99.90;;;;;;5066634;28;20036;-79
2021/06/01 20:20:06;;;;;;;2.47;1.90;;;19.90;99.90;;;;;;5074024;28;20116;-78
2021/06/01 20:22:34;;;;;;;3.80;1.88;;;19.80;99.90;;;;;;5058987;28;20166;-79